sensor_id;sensor_type;location;lat;lon;timestamp;temperature;humidity
38866;DHT22;62686;48.984;8.394;2022-09-17T00:01:30;11.00;1.00
38866;DHT22;62686;48.984;8.394;2022-09-17T00:04:01;10.90;1.10
38866;DHT22;62686;48.984;8.394;2022-09-17T00:06:33;10.80;1.20
38866;DHT22;62686;48.984;8.394;2022-09-17T00:09:03;10.80;1.40
38866;DHT22;62686;48.984;8.394;2022-09-17T00:11:35;10.70;1.00
38866;DHT22;62686;48.984;8.394;2022-09-17T00:14:17;10.60;1.00
38866;DHT22;62686;48.984;8.394;2022-09-17T00:16:53;10.60;3.10
38866;DHT22;62686;48.984;8.394;2022-09-17T00:19:24;10.50;1.60
38866;DHT22;62686;48.984;8.394;2022-09-17T00:21:52;10.60;1.00
38866;DHT22;62686;48.984;8.394;2022-09-17T00:24:23;10.60;1.00
38866;DHT22;62686;48.984;8.394;2022-09-17T00:26:54;10.60;1.00
38866;DHT22;62686;48.984;8.394;2022-09-17T00:29:23;10.70;1.00
38866;DHT22;62686;48.984;8.394;2022-09-17T00:31:51;10.70;1.00
38866;DHT22;62686;48.984;8.394;2022-09-17T00:34:21;10.80;1.00
38866;DHT22;62686;48.984;8.394;2022-09-17T00:36:54;10.90;1.00
38866;DHT22;62686;48.984;8.394;2022-09-17T00:39:25;10.80;1.00
38866;DHT22;62686;48.984;8.394;2022-09-17T00:41:55;10.80;1.00
38866;DHT22;62686;48.984;8.394;2022-09-17T00:44:43;10.80;1.00
38866;DHT22;62686;48.984;8.394;2022-09-17T00:47:16;10.80;1.00
38866;DHT22;62686;48.984;8.394;2022-09-17T00:49:47;10.80;1.00
38866;DHT22;62686;48.984;8.394;2022-09-17T00:52:18;10.80;1.00
38866;DHT22;62686;48.984;8.394;2022-09-17T00:54:53;10.80;1.00
38866;DHT22;62686;48.984;8.394;2022-09-17T00:57:23;10.80;1.00
38866;DHT22;62686;48.984;8.394;2022-09-17T00:59:52;10.80;1.00
38866;DHT22;62686;48.984;8.394;2022-09-17T01:02:21;10.80;1.00
38866;DHT22;62686;48.984;8.394;2022-09-17T01:04:54;10.70;1.00
38866;DHT22;62686;48.984;8.394;2022-09-17T01:10:29;10.70;1.00
38866;DHT22;62686;48.984;8.394;2022-09-17T01:13:11;10.70;1.00
38866;DHT22;62686;48.984;8.394;2022-09-17T01:15:46;10.60;1.00
38866;DHT22;62686;48.984;8.394;2022-09-17T01:18:26;10.50;1.00
38866;DHT22;62686;48.984;8.394;2022-09-17T01:21:23;10.60;1.00
38866;DHT22;62686;48.984;8.394;2022-09-17T01:24:36;10.50;2.60
38866;DHT22;62686;48.984;8.394;2022-09-17T01:27:30;10.40;4.70
38866;DHT22;62686;48.984;8.394;2022-09-17T01:30:16;10.40;3.90
38866;DHT22;62686;48.984;8.394;2022-09-17T01:32:49;10.30;7.80
38866;DHT22;62686;48.984;8.394;2022-09-17T01:35:22;10.30;9.60
38866;DHT22;62686;48.984;8.394;2022-09-17T01:38:00;10.30;10.00
38866;DHT22;62686;48.984;8.394;2022-09-17T01:40:34;10.30;8.50
38866;DHT22;62686;48.984;8.394;2022-09-17T01:43:06;10.30;9.10
38866;DHT22;62686;48.984;8.394;2022-09-17T01:45:39;10.20;10.40
38866;DHT22;62686;48.984;8.394;2022-09-17T01:48:14;10.20;13.00
38866;DHT22;62686;48.984;8.394;2022-09-17T01:50:48;10.20;15.50
38866;DHT22;62686;48.984;8.394;2022-09-17T01:53:22;10.20;17.40
38866;DHT22;62686;48.984;8.394;2022-09-17T01:55:54;10.20;18.90
38866;DHT22;62686;48.984;8.394;2022-09-17T01:58:26;10.20;19.30
38866;DHT22;62686;48.984;8.394;2022-09-17T02:00:59;10.20;19.80
38866;DHT22;62686;48.984;8.394;2022-09-17T02:03:33;10.20;20.10
38866;DHT22;62686;48.984;8.394;2022-09-17T02:06:07;10.10;21.80
38866;DHT22;62686;48.984;8.394;2022-09-17T02:08:42;10.20;23.70
38866;DHT22;62686;48.984;8.394;2022-09-17T02:11:12;10.20;25.50
38866;DHT22;62686;48.984;8.394;2022-09-17T02:13:45;10.20;25.80
38866;DHT22;62686;48.984;8.394;2022-09-17T02:16:18;10.20;26.50
38866;DHT22;62686;48.984;8.394;2022-09-17T02:18:55;10.30;26.50
38866;DHT22;62686;48.984;8.394;2022-09-17T02:21:31;10.30;25.70
38866;DHT22;62686;48.984;8.394;2022-09-17T02:24:08;10.20;25.10
38866;DHT22;62686;48.984;8.394;2022-09-17T02:26:41;10.20;24.80
38866;DHT22;62686;48.984;8.394;2022-09-17T02:29:18;10.20;24.40
38866;DHT22;62686;48.984;8.394;2022-09-17T02:31:49;10.10;23.60
38866;DHT22;62686;48.984;8.394;2022-09-17T02:34:19;10.00;24.00
38866;DHT22;62686;48.984;8.394;2022-09-17T02:36:49;10.00;23.10
38866;DHT22;62686;48.984;8.394;2022-09-17T02:39:19;9.80;21.80
38866;DHT22;62686;48.984;8.394;2022-09-17T02:41:52;9.70;21.10
38866;DHT22;62686;48.984;8.394;2022-09-17T02:44:29;9.70;23.30
38866;DHT22;62686;48.984;8.394;2022-09-17T02:50:01;9.50;25.10
38866;DHT22;62686;48.984;8.394;2022-09-17T02:52:45;9.40;26.20
38866;DHT22;62686;48.984;8.394;2022-09-17T02:55:18;9.40;28.20
38866;DHT22;62686;48.984;8.394;2022-09-17T02:57:53;9.40;29.90
38866;DHT22;62686;48.984;8.394;2022-09-17T03:00:26;9.40;31.30
38866;DHT22;62686;48.984;8.394;2022-09-17T03:02:57;9.40;32.60
38866;DHT22;62686;48.984;8.394;2022-09-17T03:05:28;9.40;31.50
38866;DHT22;62686;48.984;8.394;2022-09-17T03:07:58;9.30;29.80
38866;DHT22;62686;48.984;8.394;2022-09-17T03:10:27;9.30;29.70
38866;DHT22;62686;48.984;8.394;2022-09-17T03:12:59;9.30;29.80
38866;DHT22;62686;48.984;8.394;2022-09-17T03:15:27;9.30;30.20
38866;DHT22;62686;48.984;8.394;2022-09-17T03:17:56;9.20;30.00
38866;DHT22;62686;48.984;8.394;2022-09-17T03:20:24;9.20;30.40
38866;DHT22;62686;48.984;8.394;2022-09-17T03:22:53;9.20;31.10
38866;DHT22;62686;48.984;8.394;2022-09-17T03:25:21;9.20;31.90
38866;DHT22;62686;48.984;8.394;2022-09-17T03:27:49;9.20;31.50
38866;DHT22;62686;48.984;8.394;2022-09-17T03:30:18;9.20;30.70
38866;DHT22;62686;48.984;8.394;2022-09-17T03:32:46;9.20;29.60
38866;DHT22;62686;48.984;8.394;2022-09-17T03:35:14;9.20;28.00
38866;DHT22;62686;48.984;8.394;2022-09-17T03:37:42;9.10;26.40
38866;DHT22;62686;48.984;8.394;2022-09-17T03:40:14;9.10;27.10
38866;DHT22;62686;48.984;8.394;2022-09-17T03:42:42;9.20;31.60
38866;DHT22;62686;48.984;8.394;2022-09-17T03:45:11;9.30;34.20
38866;DHT22;62686;48.984;8.394;2022-09-17T03:47:39;9.30;35.10
38866;DHT22;62686;48.984;8.394;2022-09-17T03:50:07;9.40;35.40
38866;DHT22;62686;48.984;8.394;2022-09-17T03:52:36;9.40;32.90
38866;DHT22;62686;48.984;8.394;2022-09-17T03:55:05;9.50;29.10
38866;DHT22;62686;48.984;8.394;2022-09-17T03:57:34;9.50;26.70
38866;DHT22;62686;48.984;8.394;2022-09-17T04:00:04;9.40;26.40
38866;DHT22;62686;48.984;8.394;2022-09-17T04:02:34;9.40;26.10
38866;DHT22;62686;48.984;8.394;2022-09-17T04:05:03;9.50;27.60
38866;DHT22;62686;48.984;8.394;2022-09-17T04:07:32;9.50;28.20
38866;DHT22;62686;48.984;8.394;2022-09-17T04:10:00;9.50;23.90
38866;DHT22;62686;48.984;8.394;2022-09-17T04:12:28;9.50;22.00
38866;DHT22;62686;48.984;8.394;2022-09-17T04:14:57;9.50;19.90
38866;DHT22;62686;48.984;8.394;2022-09-17T04:17:26;9.40;16.70
38866;DHT22;62686;48.984;8.394;2022-09-17T04:19:54;9.30;16.10
38866;DHT22;62686;48.984;8.394;2022-09-17T04:22:23;9.20;15.90
38866;DHT22;62686;48.984;8.394;2022-09-17T04:24:51;9.10;18.20
38866;DHT22;62686;48.984;8.394;2022-09-17T04:27:19;9.10;23.00
38866;DHT22;62686;48.984;8.394;2022-09-17T04:29:47;9.20;28.10
38866;DHT22;62686;48.984;8.394;2022-09-17T04:32:17;9.20;31.70
38866;DHT22;62686;48.984;8.394;2022-09-17T04:34:45;9.40;32.10
38866;DHT22;62686;48.984;8.394;2022-09-17T04:37:13;9.40;28.00
38866;DHT22;62686;48.984;8.394;2022-09-17T04:39:41;9.40;26.10
38866;DHT22;62686;48.984;8.394;2022-09-17T04:42:09;9.50;23.70
38866;DHT22;62686;48.984;8.394;2022-09-17T04:44:37;9.50;20.20
38866;DHT22;62686;48.984;8.394;2022-09-17T04:47:06;9.50;19.90
38866;DHT22;62686;48.984;8.394;2022-09-17T04:49:35;9.50;20.10
38866;DHT22;62686;48.984;8.394;2022-09-17T04:52:03;9.50;19.60
38866;DHT22;62686;48.984;8.394;2022-09-17T04:54:31;9.60;20.80
38866;DHT22;62686;48.984;8.394;2022-09-17T04:57:00;9.50;18.40
38866;DHT22;62686;48.984;8.394;2022-09-17T04:59:28;9.50;12.30
38866;DHT22;62686;48.984;8.394;2022-09-17T05:01:56;9.50;9.30
38866;DHT22;62686;48.984;8.394;2022-09-17T05:04:24;9.60;9.60
38866;DHT22;62686;48.984;8.394;2022-09-17T05:06:54;9.50;9.20
38866;DHT22;62686;48.984;8.394;2022-09-17T05:09:22;9.50;3.90
38866;DHT22;62686;48.984;8.394;2022-09-17T05:11:50;9.60;2.60
38866;DHT22;62686;48.984;8.394;2022-09-17T05:14:19;9.50;2.00
38866;DHT22;62686;48.984;8.394;2022-09-17T05:16:47;9.60;4.70
38866;DHT22;62686;48.984;8.394;2022-09-17T05:19:15;9.60;3.80
38866;DHT22;62686;48.984;8.394;2022-09-17T05:21:43;9.60;2.30
38866;DHT22;62686;48.984;8.394;2022-09-17T05:24:13;9.70;1.00
38866;DHT22;62686;48.984;8.394;2022-09-17T05:26:41;9.70;1.00
38866;DHT22;62686;48.984;8.394;2022-09-17T05:29:09;9.60;1.00
38866;DHT22;62686;48.984;8.394;2022-09-17T05:31:37;9.60;1.00
38866;DHT22;62686;48.984;8.394;2022-09-17T05:34:05;9.60;1.00
38866;DHT22;62686;48.984;8.394;2022-09-17T05:36:33;9.70;1.00
38866;DHT22;62686;48.984;8.394;2022-09-17T05:39:01;9.70;1.00
38866;DHT22;62686;48.984;8.394;2022-09-17T05:41:31;9.70;1.00
38866;DHT22;62686;48.984;8.394;2022-09-17T05:44:01;9.70;1.00
38866;DHT22;62686;48.984;8.394;2022-09-17T05:46:29;9.80;1.00
38866;DHT22;62686;48.984;8.394;2022-09-17T05:48:57;9.80;1.00
38866;DHT22;62686;48.984;8.394;2022-09-17T05:51:25;9.80;1.00
38866;DHT22;62686;48.984;8.394;2022-09-17T05:53:53;9.80;1.00
38866;DHT22;62686;48.984;8.394;2022-09-17T05:56:22;9.80;1.00
38866;DHT22;62686;48.984;8.394;2022-09-17T05:58:55;9.80;1.00
38866;DHT22;62686;48.984;8.394;2022-09-17T06:01:23;9.70;1.00
38866;DHT22;62686;48.984;8.394;2022-09-17T06:03:52;9.60;1.00
38866;DHT22;62686;48.984;8.394;2022-09-17T06:06:20;9.50;14.40
38866;DHT22;62686;48.984;8.394;2022-09-17T06:08:48;9.50;17.90
38866;DHT22;62686;48.984;8.394;2022-09-17T06:11:17;9.50;20.70
38866;DHT22;62686;48.984;8.394;2022-09-17T06:13:45;9.50;25.10
38866;DHT22;62686;48.984;8.394;2022-09-17T06:16:14;9.50;29.90
38866;DHT22;62686;48.984;8.394;2022-09-17T06:18:43;9.50;30.30
38866;DHT22;62686;48.984;8.394;2022-09-17T06:21:11;9.50;33.60
38866;DHT22;62686;48.984;8.394;2022-09-17T06:23:39;9.60;37.30
38866;DHT22;62686;48.984;8.394;2022-09-17T06:26:09;9.50;39.20
38866;DHT22;62686;48.984;8.394;2022-09-17T06:28:38;9.50;37.80
38866;DHT22;62686;48.984;8.394;2022-09-17T06:31:08;9.50;38.90
38866;DHT22;62686;48.984;8.394;2022-09-17T06:33:38;9.60;41.20
38866;DHT22;62686;48.984;8.394;2022-09-17T06:36:08;9.60;41.10
38866;DHT22;62686;48.984;8.394;2022-09-17T06:38:39;9.70;39.50
38866;DHT22;62686;48.984;8.394;2022-09-17T06:41:07;9.70;36.20
38866;DHT22;62686;48.984;8.394;2022-09-17T06:43:36;9.70;32.00
38866;DHT22;62686;48.984;8.394;2022-09-17T06:46:05;9.80;34.10
38866;DHT22;62686;48.984;8.394;2022-09-17T06:48:35;9.90;34.90
38866;DHT22;62686;48.984;8.394;2022-09-17T06:51:07;9.90;34.00
38866;DHT22;62686;48.984;8.394;2022-09-17T06:53:36;10.00;34.20
38866;DHT22;62686;48.984;8.394;2022-09-17T06:56:05;10.10;31.40
38866;DHT22;62686;48.984;8.394;2022-09-17T06:58:34;10.10;29.20
38866;DHT22;62686;48.984;8.394;2022-09-17T07:01:04;10.20;26.60
38866;DHT22;62686;48.984;8.394;2022-09-17T07:03:33;10.20;17.60
38866;DHT22;62686;48.984;8.394;2022-09-17T07:06:01;10.20;12.50
38866;DHT22;62686;48.984;8.394;2022-09-17T07:08:32;10.30;20.30
38866;DHT22;62686;48.984;8.394;2022-09-17T07:11:01;10.40;18.20
38866;DHT22;62686;48.984;8.394;2022-09-17T07:13:29;10.50;20.10
38866;DHT22;62686;48.984;8.394;2022-09-17T07:15:59;10.60;14.80
38866;DHT22;62686;48.984;8.394;2022-09-17T07:18:28;10.70;10.60
38866;DHT22;62686;48.984;8.394;2022-09-17T07:20:58;10.80;2.90
38866;DHT22;62686;48.984;8.394;2022-09-17T07:23:27;11.00;7.40
38866;DHT22;62686;48.984;8.394;2022-09-17T07:25:58;11.00;1.00
38866;DHT22;62686;48.984;8.394;2022-09-17T07:28:27;11.10;1.00
38866;DHT22;62686;48.984;8.394;2022-09-17T07:30:56;11.10;1.00
38866;DHT22;62686;48.984;8.394;2022-09-17T07:33:26;11.20;1.00
38866;DHT22;62686;48.984;8.394;2022-09-17T07:35:55;11.30;1.00
38866;DHT22;62686;48.984;8.394;2022-09-17T07:38:24;12.30;1.00
38866;DHT22;62686;48.984;8.394;2022-09-17T07:40:58;13.80;1.00
38866;DHT22;62686;48.984;8.394;2022-09-17T07:43:28;14.70;1.00
38866;DHT22;62686;48.984;8.394;2022-09-17T07:45:58;14.90;99.90
38866;DHT22;62686;48.984;8.394;2022-09-17T07:48:27;14.80;99.90
38866;DHT22;62686;48.984;8.394;2022-09-17T07:50:56;14.60;1.00
38866;DHT22;62686;48.984;8.394;2022-09-17T07:53:24;14.50;1.00
38866;DHT22;62686;48.984;8.394;2022-09-17T07:55:53;14.20;1.00
38866;DHT22;62686;48.984;8.394;2022-09-17T07:58:26;14.10;1.00
38866;DHT22;62686;48.984;8.394;2022-09-17T08:00:59;13.90;1.00
38866;DHT22;62686;48.984;8.394;2022-09-17T08:03:28;14.10;1.00
38866;DHT22;62686;48.984;8.394;2022-09-17T08:06:01;13.90;1.00
38866;DHT22;62686;48.984;8.394;2022-09-17T08:08:30;13.90;1.00
38866;DHT22;62686;48.984;8.394;2022-09-17T08:11:00;13.80;1.00
38866;DHT22;62686;48.984;8.394;2022-09-17T08:13:30;13.60;1.00
38866;DHT22;62686;48.984;8.394;2022-09-17T08:15:59;13.30;1.00
38866;DHT22;62686;48.984;8.394;2022-09-17T08:18:28;13.30;1.00
38866;DHT22;62686;48.984;8.394;2022-09-17T08:20:57;13.10;1.00
38866;DHT22;62686;48.984;8.394;2022-09-17T08:23:25;13.20;1.00
38866;DHT22;62686;48.984;8.394;2022-09-17T08:25:54;13.60;1.00
38866;DHT22;62686;48.984;8.394;2022-09-17T08:28:23;14.40;1.00
38866;DHT22;62686;48.984;8.394;2022-09-17T08:30:58;14.90;99.90
38866;DHT22;62686;48.984;8.394;2022-09-17T08:33:30;15.50;99.90
38866;DHT22;62686;48.984;8.394;2022-09-17T08:35:58;15.40;20.60
38866;DHT22;62686;48.984;8.394;2022-09-17T08:38:27;15.40;66.10
38866;DHT22;62686;48.984;8.394;2022-09-17T08:41:03;15.30;1.00
38866;DHT22;62686;48.984;8.394;2022-09-17T08:43:34;15.20;46.70
38866;DHT22;62686;48.984;8.394;2022-09-17T08:46:09;15.30;37.90
38866;DHT22;62686;48.984;8.394;2022-09-17T08:48:41;15.30;99.90
38866;DHT22;62686;48.984;8.394;2022-09-17T08:51:14;15.20;99.90
38866;DHT22;62686;48.984;8.394;2022-09-17T08:53:55;14.80;99.90
38866;DHT22;62686;48.984;8.394;2022-09-17T08:56:25;14.30;99.90
38866;DHT22;62686;48.984;8.394;2022-09-17T08:59:02;13.80;1.00
38866;DHT22;62686;48.984;8.394;2022-09-17T09:01:38;13.60;1.00
38866;DHT22;62686;48.984;8.394;2022-09-17T09:07:16;13.70;1.00
38866;DHT22;62686;48.984;8.394;2022-09-17T09:09:50;13.90;1.00
38866;DHT22;62686;48.984;8.394;2022-09-17T09:12:23;14.50;1.00
38866;DHT22;62686;48.984;8.394;2022-09-17T09:14:56;15.30;1.00
38866;DHT22;62686;48.984;8.394;2022-09-17T09:17:30;15.60;99.90
38866;DHT22;62686;48.984;8.394;2022-09-17T09:20:01;15.30;99.90
38866;DHT22;62686;48.984;8.394;2022-09-17T09:22:45;16.10;99.30
38866;DHT22;62686;48.984;8.394;2022-09-17T09:25:19;17.00;1.00
38866;DHT22;62686;48.984;8.394;2022-09-17T09:28:11;17.20;86.60
38866;DHT22;62686;48.984;8.394;2022-09-17T09:30:51;16.50;99.90
38866;DHT22;62686;48.984;8.394;2022-09-17T09:33:26;16.20;1.00
38866;DHT22;62686;48.984;8.394;2022-09-17T09:35:58;15.70;99.90
38866;DHT22;62686;48.984;8.394;2022-09-17T09:38:31;15.50;1.00
38866;DHT22;62686;48.984;8.394;2022-09-17T09:41:05;16.90;1.00
38866;DHT22;62686;48.984;8.394;2022-09-17T09:43:43;18.40;99.90
38866;DHT22;62686;48.984;8.394;2022-09-17T09:46:53;18.70;1.00
38866;DHT22;62686;48.984;8.394;2022-09-17T09:49:35;18.20;1.00
38866;DHT22;62686;48.984;8.394;2022-09-17T09:52:18;17.50;1.00
38866;DHT22;62686;48.984;8.394;2022-09-17T09:55:01;17.10;1.00
38866;DHT22;62686;48.984;8.394;2022-09-17T09:57:37;17.10;93.50
38866;DHT22;62686;48.984;8.394;2022-09-17T10:00:26;17.30;99.90
38866;DHT22;62686;48.984;8.394;2022-09-17T10:03:01;17.40;1.00
38866;DHT22;62686;48.984;8.394;2022-09-17T10:05:32;17.20;1.00
38866;DHT22;62686;48.984;8.394;2022-09-17T10:08:10;17.20;99.90
38866;DHT22;62686;48.984;8.394;2022-09-17T10:10:56;17.30;1.00
38866;DHT22;62686;48.984;8.394;2022-09-17T10:13:29;17.50;1.00
38866;DHT22;62686;48.984;8.394;2022-09-17T10:16:15;17.70;1.00
38866;DHT22;62686;48.984;8.394;2022-09-17T10:18:44;17.80;99.90
38866;DHT22;62686;48.984;8.394;2022-09-17T10:21:20;17.50;1.00
38866;DHT22;62686;48.984;8.394;2022-09-17T10:23:49;17.50;1.00
38866;DHT22;62686;48.984;8.394;2022-09-17T10:26:26;17.30;99.90
38866;DHT22;62686;48.984;8.394;2022-09-17T10:28:56;17.30;99.90
38866;DHT22;62686;48.984;8.394;2022-09-17T10:31:25;16.90;1.00
38866;DHT22;62686;48.984;8.394;2022-09-17T10:33:56;16.60;99.90
38866;DHT22;62686;48.984;8.394;2022-09-17T10:36:37;16.30;1.00
38866;DHT22;62686;48.984;8.394;2022-09-17T10:39:31;16.30;99.90
38866;DHT22;62686;48.984;8.394;2022-09-17T10:42:01;16.80;99.90
38866;DHT22;62686;48.984;8.394;2022-09-17T10:44:31;17.80;1.00
38866;DHT22;62686;48.984;8.394;2022-09-17T10:47:03;18.40;1.00
38866;DHT22;62686;48.984;8.394;2022-09-17T10:49:36;18.60;99.90
38866;DHT22;62686;48.984;8.394;2022-09-17T10:52:22;18.50;18.90
38866;DHT22;62686;48.984;8.394;2022-09-17T10:55:20;18.60;1.00
38866;DHT22;62686;48.984;8.394;2022-09-17T10:58:03;18.70;99.90
38866;DHT22;62686;48.984;8.394;2022-09-17T11:00:49;18.00;1.00
38866;DHT22;62686;48.984;8.394;2022-09-17T11:03:50;17.50;99.90
38866;DHT22;62686;48.984;8.394;2022-09-17T11:06:29;17.10;89.00
38866;DHT22;62686;48.984;8.394;2022-09-17T11:09:22;16.50;1.00
38866;DHT22;62686;48.984;8.394;2022-09-17T11:12:01;16.20;99.90
38866;DHT22;62686;48.984;8.394;2022-09-17T11:14:46;16.00;99.90
38866;DHT22;62686;48.984;8.394;2022-09-17T11:17:36;15.90;99.90
38866;DHT22;62686;48.984;8.394;2022-09-17T11:20:19;15.90;99.90
38866;DHT22;62686;48.984;8.394;2022-09-17T11:23:01;15.90;1.00
38866;DHT22;62686;48.984;8.394;2022-09-17T11:25:44;15.90;1.00
38866;DHT22;62686;48.984;8.394;2022-09-17T11:28:25;15.90;1.00
38866;DHT22;62686;48.984;8.394;2022-09-17T11:31:04;16.20;1.00
38866;DHT22;62686;48.984;8.394;2022-09-17T11:33:55;16.10;1.00
38866;DHT22;62686;48.984;8.394;2022-09-17T11:36:32;16.20;1.00
38866;DHT22;62686;48.984;8.394;2022-09-17T11:39:09;16.20;1.00
38866;DHT22;62686;48.984;8.394;2022-09-17T11:41:45;16.60;1.00
38866;DHT22;62686;48.984;8.394;2022-09-17T11:44:15;17.20;99.90
38866;DHT22;62686;48.984;8.394;2022-09-17T11:46:51;18.10;1.00
38866;DHT22;62686;48.984;8.394;2022-09-17T11:49:25;18.40;1.00
38866;DHT22;62686;48.984;8.394;2022-09-17T11:51:57;18.40;1.00
38866;DHT22;62686;48.984;8.394;2022-09-17T11:54:30;17.40;1.00
38866;DHT22;62686;48.984;8.394;2022-09-17T11:57:06;16.50;1.00
38866;DHT22;62686;48.984;8.394;2022-09-17T11:59:40;15.70;99.90
38866;DHT22;62686;48.984;8.394;2022-09-17T12:02:20;15.00;99.90
38866;DHT22;62686;48.984;8.394;2022-09-17T12:04:56;14.30;34.00
38866;DHT22;62686;48.984;8.394;2022-09-17T12:07:38;13.50;1.00
38866;DHT22;62686;48.984;8.394;2022-09-17T12:10:19;12.70;1.00
38866;DHT22;62686;48.984;8.394;2022-09-17T12:12:56;12.20;1.00
38866;DHT22;62686;48.984;8.394;2022-09-17T12:15:29;11.90;1.00
38866;DHT22;62686;48.984;8.394;2022-09-17T12:18:10;11.70;1.00
38866;DHT22;62686;48.984;8.394;2022-09-17T12:20:59;11.60;1.00
38866;DHT22;62686;48.984;8.394;2022-09-17T12:23:35;11.50;1.00
38866;DHT22;62686;48.984;8.394;2022-09-17T12:26:13;11.50;1.00
38866;DHT22;62686;48.984;8.394;2022-09-17T12:28:52;11.60;1.00
38866;DHT22;62686;48.984;8.394;2022-09-17T12:31:30;11.70;2.40
38866;DHT22;62686;48.984;8.394;2022-09-17T12:34:03;11.90;10.40
38866;DHT22;62686;48.984;8.394;2022-09-17T12:36:41;12.40;18.30
38866;DHT22;62686;48.984;8.394;2022-09-17T12:39:38;12.80;1.00
38866;DHT22;62686;48.984;8.394;2022-09-17T12:42:17;13.20;1.00
38866;DHT22;62686;48.984;8.394;2022-09-17T12:45:02;13.20;1.00
38866;DHT22;62686;48.984;8.394;2022-09-17T12:50:52;13.70;1.00
38866;DHT22;62686;48.984;8.394;2022-09-17T12:53:28;14.00;1.00
38866;DHT22;62686;48.984;8.394;2022-09-17T12:56:04;14.30;1.00
38866;DHT22;62686;48.984;8.394;2022-09-17T12:58:49;14.60;1.00
38866;DHT22;62686;48.984;8.394;2022-09-17T13:01:29;15.10;1.00
38866;DHT22;62686;48.984;8.394;2022-09-17T13:04:09;15.50;1.00
38866;DHT22;62686;48.984;8.394;2022-09-17T13:10:02;17.10;99.90
38866;DHT22;62686;48.984;8.394;2022-09-17T13:12:39;17.40;44.80
38866;DHT22;62686;48.984;8.394;2022-09-17T13:15:41;18.20;99.90
38866;DHT22;62686;48.984;8.394;2022-09-17T13:18:24;19.70;1.00
38866;DHT22;62686;48.984;8.394;2022-09-17T13:20:58;21.00;99.90
38866;DHT22;62686;48.984;8.394;2022-09-17T13:23:38;22.20;99.90
38866;DHT22;62686;48.984;8.394;2022-09-17T13:26:08;21.80;1.00
38866;DHT22;62686;48.984;8.394;2022-09-17T13:28:39;20.50;99.90
38866;DHT22;62686;48.984;8.394;2022-09-17T13:31:12;20.80;1.00
38866;DHT22;62686;48.984;8.394;2022-09-17T13:33:53;22.70;1.00
38866;DHT22;62686;48.984;8.394;2022-09-17T13:36:43;23.00;99.90
38866;DHT22;62686;48.984;8.394;2022-09-17T13:39:38;21.60;1.00
38866;DHT22;62686;48.984;8.394;2022-09-17T13:42:11;19.50;1.00
38866;DHT22;62686;48.984;8.394;2022-09-17T13:44:46;18.50;1.00
38866;DHT22;62686;48.984;8.394;2022-09-17T13:47:25;18.40;97.40
38866;DHT22;62686;48.984;8.394;2022-09-17T13:49:58;18.40;99.90
38866;DHT22;62686;48.984;8.394;2022-09-17T13:55:31;20.70;1.00
38866;DHT22;62686;48.984;8.394;2022-09-17T13:58:03;20.90;99.90
38866;DHT22;62686;48.984;8.394;2022-09-17T14:00:50;21.20;99.90
38866;DHT22;62686;48.984;8.394;2022-09-17T14:03:53;19.70;1.00
38866;DHT22;62686;48.984;8.394;2022-09-17T14:06:46;18.60;1.00
38866;DHT22;62686;48.984;8.394;2022-09-17T14:12:50;18.60;99.90
38866;DHT22;62686;48.984;8.394;2022-09-17T14:18:41;18.00;3.50
38866;DHT22;62686;48.984;8.394;2022-09-17T14:21:13;17.10;1.00
38866;DHT22;62686;48.984;8.394;2022-09-17T14:23:45;16.70;1.00
38866;DHT22;62686;48.984;8.394;2022-09-17T14:26:23;16.30;99.90
38866;DHT22;62686;48.984;8.394;2022-09-17T14:29:00;15.80;99.90
38866;DHT22;62686;48.984;8.394;2022-09-17T14:31:34;15.50;99.90
38866;DHT22;62686;48.984;8.394;2022-09-17T14:34:04;15.50;84.00
38866;DHT22;62686;48.984;8.394;2022-09-17T14:36:36;15.70;1.00
38866;DHT22;62686;48.984;8.394;2022-09-17T14:39:11;15.80;1.00
38866;DHT22;62686;48.984;8.394;2022-09-17T14:41:41;15.70;1.00
38866;DHT22;62686;48.984;8.394;2022-09-17T14:44:14;15.60;52.00
38866;DHT22;62686;48.984;8.394;2022-09-17T14:46:51;15.50;1.00
38866;DHT22;62686;48.984;8.394;2022-09-17T14:49:22;15.60;99.90
38866;DHT22;62686;48.984;8.394;2022-09-17T14:51:50;15.70;1.00
38866;DHT22;62686;48.984;8.394;2022-09-17T14:54:22;15.80;99.90
38866;DHT22;62686;48.984;8.394;2022-09-17T14:56:56;15.80;19.80
38866;DHT22;62686;48.984;8.394;2022-09-17T14:59:41;15.90;1.00
38866;DHT22;62686;48.984;8.394;2022-09-17T15:02:23;15.80;99.90
38866;DHT22;62686;48.984;8.394;2022-09-17T15:04:54;15.90;1.00
38866;DHT22;62686;48.984;8.394;2022-09-17T15:07:24;15.90;1.00
38866;DHT22;62686;48.984;8.394;2022-09-17T15:10:05;15.80;99.90
38866;DHT22;62686;48.984;8.394;2022-09-17T15:12:34;15.70;1.00
38866;DHT22;62686;48.984;8.394;2022-09-17T15:15:03;15.60;99.90
38866;DHT22;62686;48.984;8.394;2022-09-17T15:17:32;15.40;1.00
38866;DHT22;62686;48.984;8.394;2022-09-17T15:20:02;15.10;99.90
38866;DHT22;62686;48.984;8.394;2022-09-17T15:22:34;15.10;99.90
38866;DHT22;62686;48.984;8.394;2022-09-17T15:25:08;15.00;99.90
38866;DHT22;62686;48.984;8.394;2022-09-17T15:27:39;15.00;1.00
38866;DHT22;62686;48.984;8.394;2022-09-17T15:30:12;15.10;1.00
38866;DHT22;62686;48.984;8.394;2022-09-17T15:32:47;15.20;1.00
38866;DHT22;62686;48.984;8.394;2022-09-17T15:35:22;15.40;99.90
38866;DHT22;62686;48.984;8.394;2022-09-17T15:37:53;15.70;1.00
38866;DHT22;62686;48.984;8.394;2022-09-17T15:40:39;16.00;99.90
38866;DHT22;62686;48.984;8.394;2022-09-17T15:43:16;16.30;99.90
38866;DHT22;62686;48.984;8.394;2022-09-17T15:45:45;16.40;1.00
38866;DHT22;62686;48.984;8.394;2022-09-17T15:48:23;16.20;1.00
38866;DHT22;62686;48.984;8.394;2022-09-17T15:51:01;16.10;99.90
38866;DHT22;62686;48.984;8.394;2022-09-17T15:53:31;16.10;1.00
38866;DHT22;62686;48.984;8.394;2022-09-17T15:56:06;15.90;1.00
38866;DHT22;62686;48.984;8.394;2022-09-17T15:58:37;15.60;1.00
38866;DHT22;62686;48.984;8.394;2022-09-17T16:04:26;15.00;99.90
38866;DHT22;62686;48.984;8.394;2022-09-17T16:07:00;14.90;99.90
38866;DHT22;62686;48.984;8.394;2022-09-17T16:09:41;14.80;1.00
38866;DHT22;62686;48.984;8.394;2022-09-17T16:12:13;14.60;1.00
38866;DHT22;62686;48.984;8.394;2022-09-17T16:14:46;14.30;1.00
38866;DHT22;62686;48.984;8.394;2022-09-17T16:17:24;14.10;67.00
38866;DHT22;62686;48.984;8.394;2022-09-17T16:19:54;13.80;1.00
38866;DHT22;62686;48.984;8.394;2022-09-17T16:22:23;13.50;99.90
38866;DHT22;62686;48.984;8.394;2022-09-17T16:24:52;13.10;1.00
38866;DHT22;62686;48.984;8.394;2022-09-17T16:27:23;12.80;1.00
38866;DHT22;62686;48.984;8.394;2022-09-17T16:29:57;12.60;1.00
38866;DHT22;62686;48.984;8.394;2022-09-17T16:32:27;12.40;1.00
38866;DHT22;62686;48.984;8.394;2022-09-17T16:34:55;12.30;1.00
38866;DHT22;62686;48.984;8.394;2022-09-17T16:37:23;12.10;1.00
38866;DHT22;62686;48.984;8.394;2022-09-17T16:39:52;12.20;1.00
38866;DHT22;62686;48.984;8.394;2022-09-17T16:42:21;12.00;1.00
38866;DHT22;62686;48.984;8.394;2022-09-17T16:44:50;12.00;1.00
38866;DHT22;62686;48.984;8.394;2022-09-17T16:47:18;12.00;1.00
38866;DHT22;62686;48.984;8.394;2022-09-17T16:49:46;11.90;6.40
38866;DHT22;62686;48.984;8.394;2022-09-17T16:52:14;12.00;15.20